sensor_id;sensor_type;location;lat;lon;timestamp;P1;durP1;ratioP1;P2;durP2;ratioP2
21392;SDS011;10857;52.228;21.026;2023-06-22T00:02:09;32.53;;;28.08;;
21392;SDS011;10857;52.228;21.026;2023-06-22T00:04:38;30.92;;;27.50;;
21392;SDS011;10857;52.228;21.026;2023-06-22T00:07:09;30.42;;;27.17;;
21392;SDS011;10857;52.228;21.026;2023-06-22T00:09:38;30.73;;;27.20;;
21392;SDS011;10857;52.228;21.026;2023-06-22T00:12:07;31.92;;;27.27;;
21392;SDS011;10857;52.228;21.026;2023-06-22T00:14:36;30.88;;;27.67;;
21392;SDS011;10857;52.228;21.026;2023-06-22T00:17:09;31.30;;;27.98;;
21392;SDS011;10857;52.228;21.026;2023-06-22T00:19:39;31.73;;;28.33;;
21392;SDS011;10857;52.228;21.026;2023-06-22T00:22:07;30.30;;;27.17;;
21392;SDS011;10857;52.228;21.026;2023-06-22T00:24:35;30.83;;;27.67;;
21392;SDS011;10857;52.228;21.026;2023-06-22T00:27:04;29.95;;;26.50;;
21392;SDS011;10857;52.228;21.026;2023-06-22T00:29:35;30.63;;;27.30;;
21392;SDS011;10857;52.228;21.026;2023-06-22T00:32:04;30.52;;;27.23;;
21392;SDS011;10857;52.228;21.026;2023-06-22T00:34:32;29.33;;;26.33;;
21392;SDS011;10857;52.228;21.026;2023-06-22T00:37:06;31.33;;;28.05;;
21392;SDS011;10857;52.228;21.026;2023-06-22T00:39:38;29.65;;;26.38;;
21392;SDS011;10857;52.228;21.026;2023-06-22T00:42:15;30.50;;;27.40;;
21392;SDS011;10857;52.228;21.026;2023-06-22T00:44:46;31.00;;;27.75;;
21392;SDS011;10857;52.228;21.026;2023-06-22T00:47:16;32.45;;;27.75;;
21392;SDS011;10857;52.228;21.026;2023-06-22T00:49:46;31.17;;;27.88;;
21392;SDS011;10857;52.228;21.026;2023-06-22T00:52:22;30.80;;;27.50;;
21392;SDS011;10857;52.228;21.026;2023-06-22T00:55:06;31.35;;;28.05;;
21392;SDS011;10857;52.228;21.026;2023-06-22T00:57:46;31.85;;;28.50;;
21392;SDS011;10857;52.228;21.026;2023-06-22T01:00:30;31.35;;;27.77;;
21392;SDS011;10857;52.228;21.026;2023-06-22T01:03:05;32.08;;;28.35;;
21392;SDS011;10857;52.228;21.026;2023-06-22T01:05:38;32.58;;;29.10;;
21392;SDS011;10857;52.228;21.026;2023-06-22T01:13:56;32.38;;;28.98;;
21392;SDS011;10857;52.228;21.026;2023-06-22T01:16:35;33.03;;;29.38;;
21392;SDS011;10857;52.228;21.026;2023-06-22T01:19:18;37.67;;;31.30;;
21392;SDS011;10857;52.228;21.026;2023-06-22T01:21:55;39.00;;;32.63;;
21392;SDS011;10857;52.228;21.026;2023-06-22T01:27:32;35.97;;;31.58;;
21392;SDS011;10857;52.228;21.026;2023-06-22T01:30:08;39.58;;;32.65;;
21392;SDS011;10857;52.228;21.026;2023-06-22T01:33:10;39.20;;;34.08;;
21392;SDS011;10857;52.228;21.026;2023-06-22T01:35:39;36.28;;;31.27;;
21392;SDS011;10857;52.228;21.026;2023-06-22T01:38:07;41.58;;;34.92;;
21392;SDS011;10857;52.228;21.026;2023-06-22T01:40:36;40.97;;;35.50;;
21392;SDS011;10857;52.228;21.026;2023-06-22T01:43:06;40.70;;;36.00;;
21392;SDS011;10857;52.228;21.026;2023-06-22T01:45:35;41.65;;;37.10;;
21392;SDS011;10857;52.228;21.026;2023-06-22T01:48:04;43.22;;;38.45;;
21392;SDS011;10857;52.228;21.026;2023-06-22T01:50:45;49.17;;;40.10;;
21392;SDS011;10857;52.228;21.026;2023-06-22T01:53:14;45.90;;;40.92;;
21392;SDS011;10857;52.228;21.026;2023-06-22T01:55:51;47.05;;;41.00;;
21392;SDS011;10857;52.228;21.026;2023-06-22T01:58:21;48.17;;;42.47;;
21392;SDS011;10857;52.228;21.026;2023-06-22T02:01:11;47.95;;;42.00;;
21392;SDS011;10857;52.228;21.026;2023-06-22T02:04:03;47.88;;;42.55;;
21392;SDS011;10857;52.228;21.026;2023-06-22T02:06:37;49.33;;;42.42;;
21392;SDS011;10857;52.228;21.026;2023-06-22T02:09:09;48.45;;;41.97;;
21392;SDS011;10857;52.228;21.026;2023-06-22T02:11:44;47.42;;;41.00;;
21392;SDS011;10857;52.228;21.026;2023-06-22T02:14:53;49.50;;;41.72;;
21392;SDS011;10857;52.228;21.026;2023-06-22T02:17:27;52.33;;;41.35;;
21392;SDS011;10857;52.228;21.026;2023-06-22T02:20:03;49.50;;;44.17;;
21392;SDS011;10857;52.228;21.026;2023-06-22T02:22:38;46.88;;;39.90;;
21392;SDS011;10857;52.228;21.026;2023-06-22T02:25:09;53.63;;;46.03;;
21392;SDS011;10857;52.228;21.026;2023-06-22T02:27:47;57.35;;;49.78;;
21392;SDS011;10857;52.228;21.026;2023-06-22T02:30:42;58.17;;;48.75;;
21392;SDS011;10857;52.228;21.026;2023-06-22T02:33:15;54.72;;;46.47;;
21392;SDS011;10857;52.228;21.026;2023-06-22T02:35:46;54.45;;;47.47;;
21392;SDS011;10857;52.228;21.026;2023-06-22T02:38:35;55.20;;;48.10;;
21392;SDS011;10857;52.228;21.026;2023-06-22T02:41:19;57.42;;;49.38;;
21392;SDS011;10857;52.228;21.026;2023-06-22T02:43:55;61.95;;;50.28;;
21392;SDS011;10857;52.228;21.026;2023-06-22T02:46:23;57.53;;;49.88;;
21392;SDS011;10857;52.228;21.026;2023-06-22T02:48:53;60.45;;;51.65;;
21392;SDS011;10857;52.228;21.026;2023-06-22T02:51:21;66.55;;;53.47;;
21392;SDS011;10857;52.228;21.026;2023-06-22T02:53:51;63.75;;;53.75;;
21392;SDS011;10857;52.228;21.026;2023-06-22T02:56:28;63.63;;;53.55;;
21392;SDS011;10857;52.228;21.026;2023-06-22T02:59:01;66.63;;;54.83;;
21392;SDS011;10857;52.228;21.026;2023-06-22T03:01:38;66.32;;;55.47;;
21392;SDS011;10857;52.228;21.026;2023-06-22T03:04:19;69.28;;;56.38;;
21392;SDS011;10857;52.228;21.026;2023-06-22T03:06:46;68.53;;;55.67;;
21392;SDS011;10857;52.228;21.026;2023-06-22T03:09:18;70.22;;;57.35;;
21392;SDS011;10857;52.228;21.026;2023-06-22T03:11:56;72.38;;;57.33;;
21392;SDS011;10857;52.228;21.026;2023-06-22T03:14:36;70.93;;;56.08;;
21392;SDS011;10857;52.228;21.026;2023-06-22T03:17:10;68.55;;;56.13;;
21392;SDS011;10857;52.228;21.026;2023-06-22T03:19:46;71.95;;;58.67;;
21392;SDS011;10857;52.228;21.026;2023-06-22T03:22:15;73.70;;;58.88;;
21392;SDS011;10857;52.228;21.026;2023-06-22T03:24:43;73.43;;;57.97;;
21392;SDS011;10857;52.228;21.026;2023-06-22T03:27:21;76.30;;;58.38;;
21392;SDS011;10857;52.228;21.026;2023-06-22T03:29:50;72.63;;;57.10;;
21392;SDS011;10857;52.228;21.026;2023-06-22T03:32:19;72.30;;;57.30;;
21392;SDS011;10857;52.228;21.026;2023-06-22T03:34:47;71.13;;;55.25;;
21392;SDS011;10857;52.228;21.026;2023-06-22T03:37:18;69.45;;;55.15;;
21392;SDS011;10857;52.228;21.026;2023-06-22T03:39:50;70.30;;;55.78;;
21392;SDS011;10857;52.228;21.026;2023-06-22T03:42:20;69.95;;;54.42;;
21392;SDS011;10857;52.228;21.026;2023-06-22T03:44:48;71.15;;;54.35;;
21392;SDS011;10857;52.228;21.026;2023-06-22T03:47:19;65.97;;;53.10;;
21392;SDS011;10857;52.228;21.026;2023-06-22T03:49:48;64.32;;;52.45;;
21392;SDS011;10857;52.228;21.026;2023-06-22T03:52:17;64.60;;;51.78;;
21392;SDS011;10857;52.228;21.026;2023-06-22T03:54:45;63.90;;;51.72;;
21392;SDS011;10857;52.228;21.026;2023-06-22T03:57:15;67.15;;;52.05;;
21392;SDS011;10857;52.228;21.026;2023-06-22T03:59:44;65.45;;;52.08;;
21392;SDS011;10857;52.228;21.026;2023-06-22T04:02:13;65.00;;;52.67;;
21392;SDS011;10857;52.228;21.026;2023-06-22T04:04:56;64.20;;;51.60;;
21392;SDS011;10857;52.228;21.026;2023-06-22T04:07:34;68.28;;;54.08;;
21392;SDS011;10857;52.228;21.026;2023-06-22T04:10:08;65.50;;;51.65;;
21392;SDS011;10857;52.228;21.026;2023-06-22T04:12:51;65.20;;;52.28;;
21392;SDS011;10857;52.228;21.026;2023-06-22T04:15:22;65.93;;;52.28;;
21392;SDS011;10857;52.228;21.026;2023-06-22T04:17:55;64.75;;;51.25;;
21392;SDS011;10857;52.228;21.026;2023-06-22T04:20:26;62.67;;;50.70;;
21392;SDS011;10857;52.228;21.026;2023-06-22T04:22:55;64.10;;;50.65;;
21392;SDS011;10857;52.228;21.026;2023-06-22T04:25:23;62.92;;;50.70;;
21392;SDS011;10857;52.228;21.026;2023-06-22T04:27:50;66.30;;;50.70;;
21392;SDS011;10857;52.228;21.026;2023-06-22T04:30:19;62.30;;;49.80;;
21392;SDS011;10857;52.228;21.026;2023-06-22T04:32:47;60.78;;;47.67;;
21392;SDS011;10857;52.228;21.026;2023-06-22T04:35:35;58.40;;;48.38;;
21392;SDS011;10857;52.228;21.026;2023-06-22T04:38:03;58.20;;;48.58;;
21392;SDS011;10857;52.228;21.026;2023-06-22T04:40:31;61.22;;;49.03;;
21392;SDS011;10857;52.228;21.026;2023-06-22T04:43:00;55.95;;;46.45;;
21392;SDS011;10857;52.228;21.026;2023-06-22T04:45:30;62.40;;;47.45;;
21392;SDS011;10857;52.228;21.026;2023-06-22T04:48:01;70.20;;;46.92;;
21392;SDS011;10857;52.228;21.026;2023-06-22T04:50:28;64.82;;;48.83;;
21392;SDS011;10857;52.228;21.026;2023-06-22T04:52:56;60.58;;;48.10;;
21392;SDS011;10857;52.228;21.026;2023-06-22T04:55:24;59.28;;;46.97;;
21392;SDS011;10857;52.228;21.026;2023-06-22T04:57:53;54.90;;;46.50;;
21392;SDS011;10857;52.228;21.026;2023-06-22T05:00:22;53.25;;;44.70;;
21392;SDS011;10857;52.228;21.026;2023-06-22T05:02:49;59.55;;;44.95;;
21392;SDS011;10857;52.228;21.026;2023-06-22T05:05:20;54.03;;;43.13;;
21392;SDS011;10857;52.228;21.026;2023-06-22T05:07:49;59.15;;;44.33;;
21392;SDS011;10857;52.228;21.026;2023-06-22T05:10:27;57.13;;;44.20;;
21392;SDS011;10857;52.228;21.026;2023-06-22T05:13:02;55.33;;;44.28;;
21392;SDS011;10857;52.228;21.026;2023-06-22T05:15:30;51.88;;;43.45;;
21392;SDS011;10857;52.228;21.026;2023-06-22T05:18:03;53.47;;;44.47;;
21392;SDS011;10857;52.228;21.026;2023-06-22T05:20:33;60.40;;;45.97;;
21392;SDS011;10857;52.228;21.026;2023-06-22T05:23:02;61.88;;;45.47;;
21392;SDS011;10857;52.228;21.026;2023-06-22T05:25:36;58.78;;;45.90;;
21392;SDS011;10857;52.228;21.026;2023-06-22T05:28:05;57.03;;;45.60;;
21392;SDS011;10857;52.228;21.026;2023-06-22T05:30:39;59.58;;;45.63;;
21392;SDS011;10857;52.228;21.026;2023-06-22T05:33:07;56.17;;;45.78;;
21392;SDS011;10857;52.228;21.026;2023-06-22T05:35:36;58.95;;;45.83;;
21392;SDS011;10857;52.228;21.026;2023-06-22T05:38:06;58.15;;;44.03;;
21392;SDS011;10857;52.228;21.026;2023-06-22T05:40:34;58.67;;;45.28;;
21392;SDS011;10857;52.228;21.026;2023-06-22T05:43:04;57.45;;;45.55;;
21392;SDS011;10857;52.228;21.026;2023-06-22T05:45:34;55.08;;;44.92;;
21392;SDS011;10857;52.228;21.026;2023-06-22T05:48:05;53.88;;;45.53;;
21392;SDS011;10857;52.228;21.026;2023-06-22T05:50:37;58.65;;;45.10;;
21392;SDS011;10857;52.228;21.026;2023-06-22T05:53:08;53.42;;;44.83;;
21392;SDS011;10857;52.228;21.026;2023-06-22T05:55:39;56.22;;;44.95;;
21392;SDS011;10857;52.228;21.026;2023-06-22T05:58:07;55.78;;;45.50;;
21392;SDS011;10857;52.228;21.026;2023-06-22T06:00:35;53.05;;;44.08;;
21392;SDS011;10857;52.228;21.026;2023-06-22T06:03:03;56.17;;;45.30;;
21392;SDS011;10857;52.228;21.026;2023-06-22T06:05:35;55.63;;;43.92;;
21392;SDS011;10857;52.228;21.026;2023-06-22T06:08:05;51.10;;;42.65;;
21392;SDS011;10857;52.228;21.026;2023-06-22T06:10:33;50.05;;;41.80;;
21392;SDS011;10857;52.228;21.026;2023-06-22T06:13:00;48.17;;;39.58;;
21392;SDS011;10857;52.228;21.026;2023-06-22T06:15:29;48.13;;;37.25;;
21392;SDS011;10857;52.228;21.026;2023-06-22T06:17:56;44.78;;;37.05;;
21392;SDS011;10857;52.228;21.026;2023-06-22T06:20:26;47.05;;;37.85;;
21392;SDS011;10857;52.228;21.026;2023-06-22T06:22:58;45.63;;;38.25;;
21392;SDS011;10857;52.228;21.026;2023-06-22T06:25:25;49.22;;;39.03;;
21392;SDS011;10857;52.228;21.026;2023-06-22T06:27:54;50.03;;;39.33;;
21392;SDS011;10857;52.228;21.026;2023-06-22T06:30:22;46.88;;;37.35;;
21392;SDS011;10857;52.228;21.026;2023-06-22T06:32:50;46.58;;;37.17;;
21392;SDS011;10857;52.228;21.026;2023-06-22T06:35:19;42.13;;;35.42;;
21392;SDS011;10857;52.228;21.026;2023-06-22T06:37:49;46.38;;;34.70;;
21392;SDS011;10857;52.228;21.026;2023-06-22T06:40:17;41.80;;;37.00;;
21392;SDS011;10857;52.228;21.026;2023-06-22T06:42:49;39.65;;;32.45;;
21392;SDS011;10857;52.228;21.026;2023-06-22T06:45:21;39.95;;;31.58;;
21392;SDS011;10857;52.228;21.026;2023-06-22T06:47:51;38.22;;;31.50;;
21392;SDS011;10857;52.228;21.026;2023-06-22T06:50:19;37.40;;;30.58;;
21392;SDS011;10857;52.228;21.026;2023-06-22T06:52:47;38.90;;;30.85;;
21392;SDS011;10857;52.228;21.026;2023-06-22T06:55:17;34.63;;;30.70;;
21392;SDS011;10857;52.228;21.026;2023-06-22T06:57:45;37.35;;;29.65;;
21392;SDS011;10857;52.228;21.026;2023-06-22T07:00:18;35.53;;;29.77;;
21392;SDS011;10857;52.228;21.026;2023-06-22T07:02:46;34.38;;;29.05;;
21392;SDS011;10857;52.228;21.026;2023-06-22T07:05:17;34.22;;;27.92;;
21392;SDS011;10857;52.228;21.026;2023-06-22T07:07:44;31.35;;;27.02;;
21392;SDS011;10857;52.228;21.026;2023-06-22T07:10:12;28.25;;;25.20;;
21392;SDS011;10857;52.228;21.026;2023-06-22T07:12:42;31.92;;;25.20;;
21392;SDS011;10857;52.228;21.026;2023-06-22T07:15:09;31.40;;;24.85;;
21392;SDS011;10857;52.228;21.026;2023-06-22T07:17:38;30.85;;;24.67;;
21392;SDS011;10857;52.228;21.026;2023-06-22T07:20:09;28.17;;;23.77;;
21392;SDS011;10857;52.228;21.026;2023-06-22T07:22:43;25.83;;;23.17;;
21392;SDS011;10857;52.228;21.026;2023-06-22T07:25:15;26.80;;;23.00;;
21392;SDS011;10857;52.228;21.026;2023-06-22T07:30:26;33.88;;;22.45;;
21392;SDS011;10857;52.228;21.026;2023-06-22T07:32:54;26.00;;;19.80;;
21392;SDS011;10857;52.228;21.026;2023-06-22T07:35:22;21.95;;;18.98;;
21392;SDS011;10857;52.228;21.026;2023-06-22T07:37:59;21.17;;;18.58;;
21392;SDS011;10857;52.228;21.026;2023-06-22T07:40:31;25.10;;;18.05;;
21392;SDS011;10857;52.228;21.026;2023-06-22T07:42:59;23.40;;;17.38;;
21392;SDS011;10857;52.228;21.026;2023-06-22T07:45:27;20.75;;;15.90;;
21392;SDS011;10857;52.228;21.026;2023-06-22T07:47:54;18.77;;;16.00;;
21392;SDS011;10857;52.228;21.026;2023-06-22T07:50:22;18.85;;;13.25;;
21392;SDS011;10857;52.228;21.026;2023-06-22T07:52:49;16.05;;;14.27;;
21392;SDS011;10857;52.228;21.026;2023-06-22T07:55:19;17.38;;;13.50;;
21392;SDS011;10857;52.228;21.026;2023-06-22T07:57:50;16.27;;;12.75;;
21392;SDS011;10857;52.228;21.026;2023-06-22T08:00:19;14.65;;;11.25;;
21392;SDS011;10857;52.228;21.026;2023-06-22T08:02:48;16.50;;;11.73;;
21392;SDS011;10857;52.228;21.026;2023-06-22T08:05:16;13.82;;;10.45;;
21392;SDS011;10857;52.228;21.026;2023-06-22T08:07:49;12.73;;;10.70;;
21392;SDS011;10857;52.228;21.026;2023-06-22T08:10:17;12.23;;;10.90;;
21392;SDS011;10857;52.228;21.026;2023-06-22T08:12:44;11.27;;;9.30;;
21392;SDS011;10857;52.228;21.026;2023-06-22T08:15:12;13.23;;;9.23;;
21392;SDS011;10857;52.228;21.026;2023-06-22T08:17:41;12.90;;;9.38;;
21392;SDS011;10857;52.228;21.026;2023-06-22T08:20:08;11.00;;;8.98;;
21392;SDS011;10857;52.228;21.026;2023-06-22T08:22:38;9.27;;;8.27;;
21392;SDS011;10857;52.228;21.026;2023-06-22T08:25:05;11.20;;;8.63;;
21392;SDS011;10857;52.228;21.026;2023-06-22T08:27:37;12.82;;;8.43;;
21392;SDS011;10857;52.228;21.026;2023-06-22T08:30:09;13.55;;;8.70;;
21392;SDS011;10857;52.228;21.026;2023-06-22T08:32:39;13.05;;;8.32;;
21392;SDS011;10857;52.228;21.026;2023-06-22T08:35:06;9.35;;;7.25;;
21392;SDS011;10857;52.228;21.026;2023-06-22T08:37:40;11.07;;;7.18;;
21392;SDS011;10857;52.228;21.026;2023-06-22T08:40:08;9.35;;;7.35;;
21392;SDS011;10857;52.228;21.026;2023-06-22T08:42:40;11.95;;;8.65;;
21392;SDS011;10857;52.228;21.026;2023-06-22T08:45:13;11.50;;;8.07;;
21392;SDS011;10857;52.228;21.026;2023-06-22T08:47:43;12.40;;;7.63;;
21392;SDS011;10857;52.228;21.026;2023-06-22T08:50:17;11.63;;;7.85;;
21392;SDS011;10857;52.228;21.026;2023-06-22T08:53:05;10.23;;;7.63;;
21392;SDS011;10857;52.228;21.026;2023-06-22T08:55:34;15.82;;;13.88;;
21392;SDS011;10857;52.228;21.026;2023-06-22T08:58:02;8.75;;;7.35;;
21392;SDS011;10857;52.228;21.026;2023-06-22T09:00:32;9.82;;;6.78;;
21392;SDS011;10857;52.228;21.026;2023-06-22T09:03:02;12.38;;;7.35;;
21392;SDS011;10857;52.228;21.026;2023-06-22T09:05:34;9.35;;;6.75;;
21392;SDS011;10857;52.228;21.026;2023-06-22T09:08:02;9.32;;;6.25;;
21392;SDS011;10857;52.228;21.026;2023-06-22T09:10:32;6.82;;;6.03;;
21392;SDS011;10857;52.228;21.026;2023-06-22T09:13:05;8.45;;;6.00;;
21392;SDS011;10857;52.228;21.026;2023-06-22T09:15:33;9.63;;;5.57;;
21392;SDS011;10857;52.228;21.026;2023-06-22T09:18:02;11.63;;;5.97;;
21392;SDS011;10857;52.228;21.026;2023-06-22T09:20:33;8.43;;;5.93;;
21392;SDS011;10857;52.228;21.026;2023-06-22T09:23:01;7.15;;;6.40;;
21392;SDS011;10857;52.228;21.026;2023-06-22T09:25:28;8.95;;;6.50;;
21392;SDS011;10857;52.228;21.026;2023-06-22T09:27:59;9.95;;;6.75;;
21392;SDS011;10857;52.228;21.026;2023-06-22T09:30:28;7.45;;;6.18;;
21392;SDS011;10857;52.228;21.026;2023-06-22T09:32:58;10.60;;;6.50;;
21392;SDS011;10857;52.228;21.026;2023-06-22T09:35:26;8.82;;;6.47;;
21392;SDS011;10857;52.228;21.026;2023-06-22T09:37:55;10.48;;;5.63;;
21392;SDS011;10857;52.228;21.026;2023-06-22T09:40:22;8.38;;;5.70;;
21392;SDS011;10857;52.228;21.026;2023-06-22T09:42:52;10.07;;;5.35;;
21392;SDS011;10857;52.228;21.026;2023-06-22T09:45:20;8.55;;;4.80;;
21392;SDS011;10857;52.228;21.026;2023-06-22T09:47:47;10.32;;;5.07;;
21392;SDS011;10857;52.228;21.026;2023-06-22T09:50:14;8.50;;;5.53;;
21392;SDS011;10857;52.228;21.026;2023-06-22T09:52:43;6.90;;;5.40;;
21392;SDS011;10857;52.228;21.026;2023-06-22T09:55:14;8.82;;;5.25;;
21392;SDS011;10857;52.228;21.026;2023-06-22T09:57:43;10.70;;;4.97;;
21392;SDS011;10857;52.228;21.026;2023-06-22T10:00:18;8.55;;;5.03;;
21392;SDS011;10857;52.228;21.026;2023-06-22T10:02:46;6.68;;;4.45;;
21392;SDS011;10857;52.228;21.026;2023-06-22T10:05:15;17.23;;;5.30;;
21392;SDS011;10857;52.228;21.026;2023-06-22T10:07:44;9.68;;;4.53;;
21392;SDS011;10857;52.228;21.026;2023-06-22T10:10:12;6.97;;;4.50;;
21392;SDS011;10857;52.228;21.026;2023-06-22T10:12:56;8.13;;;5.30;;
21392;SDS011;10857;52.228;21.026;2023-06-22T10:15:23;8.43;;;5.53;;
21392;SDS011;10857;52.228;21.026;2023-06-22T10:17:54;7.97;;;5.50;;
21392;SDS011;10857;52.228;21.026;2023-06-22T10:20:21;10.95;;;6.05;;
21392;SDS011;10857;52.228;21.026;2023-06-22T10:22:49;13.10;;;5.90;;
21392;SDS011;10857;52.228;21.026;2023-06-22T10:25:17;9.73;;;5.88;;
21392;SDS011;10857;52.228;21.026;2023-06-22T10:27:44;12.77;;;5.75;;
21392;SDS011;10857;52.228;21.026;2023-06-22T10:30:13;10.05;;;6.07;;
21392;SDS011;10857;52.228;21.026;2023-06-22T10:32:42;8.55;;;6.20;;
21392;SDS011;10857;52.228;21.026;2023-06-22T10:35:10;8.30;;;5.85;;
21392;SDS011;10857;52.228;21.026;2023-06-22T10:37:51;6.72;;;6.03;;
21392;SDS011;10857;52.228;21.026;2023-06-22T10:40:18;11.20;;;5.65;;
21392;SDS011;10857;52.228;21.026;2023-06-22T10:42:46;6.20;;;5.22;;
21392;SDS011;10857;52.228;21.026;2023-06-22T10:45:14;6.10;;;5.10;;
21392;SDS011;10857;52.228;21.026;2023-06-22T10:47:44;7.20;;;4.90;;
21392;SDS011;10857;52.228;21.026;2023-06-22T10:50:13;7.70;;;5.47;;
21392;SDS011;10857;52.228;21.026;2023-06-22T10:52:42;8.40;;;5.65;;
21392;SDS011;10857;52.228;21.026;2023-06-22T10:55:14;9.40;;;5.70;;
21392;SDS011;10857;52.228;21.026;2023-06-22T10:58:18;8.20;;;5.95;;
21392;SDS011;10857;52.228;21.026;2023-06-22T11:00:49;11.10;;;5.55;;
21392;SDS011;10857;52.228;21.026;2023-06-22T11:03:20;10.13;;;5.75;;
21392;SDS011;10857;52.228;21.026;2023-06-22T11:05:49;7.63;;;5.30;;
21392;SDS011;10857;52.228;21.026;2023-06-22T11:08:17;10.05;;;6.15;;
21392;SDS011;10857;52.228;21.026;2023-06-22T11:10:45;7.65;;;6.05;;
21392;SDS011;10857;52.228;21.026;2023-06-22T11:13:12;7.95;;;6.43;;
21392;SDS011;10857;52.228;21.026;2023-06-22T11:15:40;8.85;;;6.32;;
21392;SDS011;10857;52.228;21.026;2023-06-22T11:18:09;11.23;;;6.25;;
21392;SDS011;10857;52.228;21.026;2023-06-22T11:20:36;11.23;;;6.18;;
21392;SDS011;10857;52.228;21.026;2023-06-22T11:23:07;11.05;;;6.20;;
21392;SDS011;10857;52.228;21.026;2023-06-22T11:25:39;7.18;;;5.97;;
21392;SDS011;10857;52.228;21.026;2023-06-22T11:28:08;7.60;;;5.88;;
21392;SDS011;10857;52.228;21.026;2023-06-22T11:30:37;9.93;;;5.93;;
21392;SDS011;10857;52.228;21.026;2023-06-22T11:33:12;8.05;;;5.80;;
21392;SDS011;10857;52.228;21.026;2023-06-22T11:35:40;10.40;;;6.22;;
21392;SDS011;10857;52.228;21.026;2023-06-22T11:38:07;7.35;;;6.07;;
21392;SDS011;10857;52.228;21.026;2023-06-22T11:40:37;10.65;;;6.55;;
21392;SDS011;10857;52.228;21.026;2023-06-22T11:43:04;10.32;;;6.43;;
21392;SDS011;10857;52.228;21.026;2023-06-22T11:45:33;9.05;;;6.10;;
21392;SDS011;10857;52.228;21.026;2023-06-22T11:48:04;14.55;;;6.43;;
21392;SDS011;10857;52.228;21.026;2023-06-22T11:50:39;12.70;;;6.10;;
21392;SDS011;10857;52.228;21.026;2023-06-22T11:53:10;8.27;;;6.40;;
21392;SDS011;10857;52.228;21.026;2023-06-22T11:55:38;8.48;;;6.30;;
21392;SDS011;10857;52.228;21.026;2023-06-22T11:58:07;9.40;;;6.20;;
21392;SDS011;10857;52.228;21.026;2023-06-22T12:00:35;12.70;;;6.25;;
21392;SDS011;10857;52.228;21.026;2023-06-22T12:03:16;8.18;;;6.30;;
21392;SDS011;10857;52.228;21.026;2023-06-22T12:05:44;9.25;;;5.88;;
21392;SDS011;10857;52.228;21.026;2023-06-22T12:08:14;9.65;;;6.00;;
21392;SDS011;10857;52.228;21.026;2023-06-22T12:10:45;14.77;;;6.68;;
21392;SDS011;10857;52.228;21.026;2023-06-22T12:13:19;9.10;;;6.43;;
21392;SDS011;10857;52.228;21.026;2023-06-22T12:15:53;7.50;;;5.75;;
21392;SDS011;10857;52.228;21.026;2023-06-22T12:18:32;10.45;;;5.80;;
21392;SDS011;10857;52.228;21.026;2023-06-22T12:21:01;10.05;;;6.07;;
21392;SDS011;10857;52.228;21.026;2023-06-22T12:23:33;10.07;;;6.18;;
21392;SDS011;10857;52.228;21.026;2023-06-22T12:26:04;7.68;;;6.60;;
21392;SDS011;10857;52.228;21.026;2023-06-22T12:28:41;9.13;;;6.13;;
21392;SDS011;10857;52.228;21.026;2023-06-22T12:31:12;6.45;;;5.80;;
21392;SDS011;10857;52.228;21.026;2023-06-22T12:33:40;8.85;;;6.32;;
21392;SDS011;10857;52.228;21.026;2023-06-22T12:36:15;7.68;;;6.03;;
21392;SDS011;10857;52.228;21.026;2023-06-22T12:38:50;10.10;;;6.50;;
21392;SDS011;10857;52.228;21.026;2023-06-22T12:41:27;6.75;;;6.07;;
21392;SDS011;10857;52.228;21.026;2023-06-22T12:43:56;10.25;;;6.20;;
21392;SDS011;10857;52.228;21.026;2023-06-22T12:46:24;8.68;;;6.10;;
21392;SDS011;10857;52.228;21.026;2023-06-22T12:48:53;9.15;;;6.28;;
21392;SDS011;10857;52.228;21.026;2023-06-22T12:51:21;10.77;;;6.40;;
21392;SDS011;10857;52.228;21.026;2023-06-22T12:53:49;13.70;;;5.93;;
21392;SDS011;10857;52.228;21.026;2023-06-22T12:56:16;6.47;;;5.70;;
21392;SDS011;10857;52.228;21.026;2023-06-22T12:58:43;12.85;;;6.13;;
21392;SDS011;10857;52.228;21.026;2023-06-22T13:01:11;9.70;;;6.18;;
21392;SDS011;10857;52.228;21.026;2023-06-22T13:03:41;13.43;;;6.70;;
21392;SDS011;10857;52.228;21.026;2023-06-22T13:06:09;9.45;;;6.53;;
21392;SDS011;10857;52.228;21.026;2023-06-22T13:08:36;11.15;;;7.00;;
21392;SDS011;10857;52.228;21.026;2023-06-22T13:11:07;8.73;;;6.85;;
21392;SDS011;10857;52.228;21.026;2023-06-22T13:13:43;6.78;;;6.07;;
21392;SDS011;10857;52.228;21.026;2023-06-22T13:16:20;10.07;;;6.90;;
21392;SDS011;10857;52.228;21.026;2023-06-22T13:18:48;10.02;;;7.20;;
21392;SDS011;10857;52.228;21.026;2023-06-22T13:21:22;7.25;;;6.55;;
21392;SDS011;10857;52.228;21.026;2023-06-22T13:23:50;9.00;;;6.85;;
21392;SDS011;10857;52.228;21.026;2023-06-22T13:26:20;9.60;;;6.60;;
21392;SDS011;10857;52.228;21.026;2023-06-22T13:28:49;13.35;;;6.80;;
21392;SDS011;10857;52.228;21.026;2023-06-22T13:31:19;9.05;;;7.15;;
21392;SDS011;10857;52.228;21.026;2023-06-22T13:33:48;8.20;;;6.68;;
21392;SDS011;10857;52.228;21.026;2023-06-22T13:36:19;8.35;;;6.40;;
21392;SDS011;10857;52.228;21.026;2023-06-22T13:38:48;10.20;;;6.45;;
21392;SDS011;10857;52.228;21.026;2023-06-22T13:41:16;8.52;;;6.43;;
21392;SDS011;10857;52.228;21.026;2023-06-22T13:43:46;8.15;;;6.35;;
21392;SDS011;10857;52.228;21.026;2023-06-22T13:46:16;7.28;;;6.40;;
21392;SDS011;10857;52.228;21.026;2023-06-22T13:48:45;9.88;;;6.47;;
21392;SDS011;10857;52.228;21.026;2023-06-22T13:51:13;10.23;;;6.13;;
21392;SDS011;10857;52.228;21.026;2023-06-22T13:53:50;9.02;;;6.28;;
21392;SDS011;10857;52.228;21.026;2023-06-22T13:56:18;9.00;;;6.20;;
21392;SDS011;10857;52.228;21.026;2023-06-22T13:58:50;7.10;;;6.40;;
21392;SDS011;10857;52.228;21.026;2023-06-22T14:01:21;8.68;;;7.60;;
21392;SDS011;10857;52.228;21.026;2023-06-22T14:03:51;8.68;;;7.45;;
21392;SDS011;10857;52.228;21.026;2023-06-22T14:06:22;13.70;;;7.15;;
21392;SDS011;10857;52.228;21.026;2023-06-22T14:08:50;7.40;;;6.38;;
21392;SDS011;10857;52.228;21.026;2023-06-22T14:11:18;10.02;;;6.72;;
21392;SDS011;10857;52.228;21.026;2023-06-22T14:13:46;11.57;;;7.80;;
21392;SDS011;10857;52.228;21.026;2023-06-22T14:16:15;10.55;;;8.32;;
21392;SDS011;10857;52.228;21.026;2023-06-22T14:18:49;12.63;;;8.02;;
21392;SDS011;10857;52.228;21.026;2023-06-22T14:21:20;14.90;;;7.80;;
21392;SDS011;10857;52.228;21.026;2023-06-22T14:23:47;13.00;;;7.95;;
21392;SDS011;10857;52.228;21.026;2023-06-22T14:26:20;9.75;;;8.13;;
21392;SDS011;10857;52.228;21.026;2023-06-22T14:28:48;9.70;;;7.57;;
21392;SDS011;10857;52.228;21.026;2023-06-22T14:31:19;7.85;;;7.05;;
21392;SDS011;10857;52.228;21.026;2023-06-22T14:33:47;8.57;;;7.70;;
21392;SDS011;10857;52.228;21.026;2023-06-22T14:36:15;8.70;;;7.80;;
21392;SDS011;10857;52.228;21.026;2023-06-22T14:38:44;8.68;;;7.10;;
21392;SDS011;10857;52.228;21.026;2023-06-22T14:41:13;8.57;;;7.53;;
21392;SDS011;10857;52.228;21.026;2023-06-22T14:43:44;13.45;;;7.70;;
21392;SDS011;10857;52.228;21.026;2023-06-22T14:46:15;11.82;;;6.88;;
21392;SDS011;10857;52.228;21.026;2023-06-22T14:48:43;12.50;;;7.22;;
21392;SDS011;10857;52.228;21.026;2023-06-22T14:51:11;13.13;;;7.43;;
21392;SDS011;10857;52.228;21.026;2023-06-22T14:53:43;8.23;;;7.30;;